TAM3459 SBSP-SBLO
Flight info
| Callsign | TAM3459 |
|---|---|
| Flight time | 0h 40m |
| Altitude | 24000 |
| Route | EGEVA Z85 UMPIG |
| Aircraft | A320/M-SDE3FGHIRWY/LB1 |
Departure
| Time | 2026-05-07 17:39 |
|---|---|
| Airport | Congonhas–Deputado Freitas Nobre Airport (SBSP) |
Arrival
| Time | 2026-05-07 18:19 |
|---|---|
| Airport | Governor José Richa Airport (SBLO) |
| Time | Latitude | Longitude | Altitude | Speed | Heading |
|---|---|---|---|---|---|
| 2026-05-07 17:32 | -23.62719 | -46.65824 | 2600 ft | 0 kts | 237° |
| 2026-05-07 17:33 | -23.62717 | -46.65820 | 2601 ft | 3 kts | 235° |
| 2026-05-07 17:33 | -23.62699 | -46.65799 | 2601 ft | 4 kts | 205° |
| 2026-05-07 17:34 | -23.62676 | -46.65796 | 2601 ft | 3 kts | 151° |
| 2026-05-07 17:34 | -23.62673 | -46.65798 | 2601 ft | 0 kts | 148° |
| 2026-05-07 17:36 | -23.62697 | -46.65781 | 2601 ft | 16 kts | 147° |
| 2026-05-07 17:36 | -23.62832 | -46.65685 | 2601 ft | 21 kts | 135° |
| 2026-05-07 17:37 | -23.62898 | -46.65594 | 2603 ft | 14 kts | 148° |
| 2026-05-07 17:37 | -23.63030 | -46.65520 | 2602 ft | 26 kts | 173° |
| 2026-05-07 17:37 | -23.63174 | -46.65439 | 2602 ft | 21 kts | 147° |
| 2026-05-07 17:37 | -23.63305 | -46.65349 | 2602 ft | 23 kts | 147° |
| 2026-05-07 17:38 | -23.63407 | -46.65256 | 2602 ft | 16 kts | 101° |
| 2026-05-07 17:38 | -23.63337 | -46.65200 | 2608 ft | 17 kts | 355° |
| 2026-05-07 17:38 | -23.63115 | -46.65336 | 2610 ft | 73 kts | 327° |
| 2026-05-07 17:38 | -23.62465 | -46.65787 | 2605 ft | 145 kts | 327° |
| 2026-05-07 17:39 | -23.61533 | -46.66437 | 3176 ft | 164 kts | 327° |
| 2026-05-07 17:39 | -23.60584 | -46.67262 | 3817 ft | 187 kts | 308° |
| 2026-05-07 17:39 | -23.60105 | -46.68679 | 4054 ft | 216 kts | 283° |
| 2026-05-07 17:39 | -23.59939 | -46.70373 | 4565 ft | 231 kts | 278° |
| 2026-05-07 17:40 | -23.59851 | -46.72151 | 5235 ft | 237 kts | 277° |
| 2026-05-07 17:40 | -23.59769 | -46.73956 | 5985 ft | 240 kts | 277° |
| 2026-05-07 17:40 | -23.59796 | -46.75805 | 6618 ft | 254 kts | 269° |
| 2026-05-07 17:40 | -23.60030 | -46.77800 | 6973 ft | 275 kts | 265° |
| 2026-05-07 17:41 | -23.60340 | -46.79894 | 7639 ft | 284 kts | 264° |
| 2026-05-07 17:41 | -23.60668 | -46.82032 | 8420 ft | 288 kts | 264° |
| 2026-05-07 17:41 | -23.60993 | -46.84195 | 9208 ft | 290 kts | 265° |
| 2026-05-07 17:41 | -23.61296 | -46.86384 | 9977 ft | 294 kts | 267° |
| 2026-05-07 17:42 | -23.61478 | -46.88641 | 10357 ft | 308 kts | 270° |
| 2026-05-07 17:42 | -23.61574 | -46.91034 | 10579 ft | 330 kts | 271° |
| 2026-05-07 17:42 | -23.61632 | -46.93581 | 11054 ft | 341 kts | 271° |
| 2026-05-07 17:42 | -23.61684 | -46.96193 | 11673 ft | 347 kts | 271° |
| 2026-05-07 17:43 | -23.61742 | -46.98847 | 12278 ft | 353 kts | 271° |
| 2026-05-07 17:43 | -23.61812 | -47.01546 | 12848 ft | 359 kts | 271° |
| 2026-05-07 17:43 | -23.61890 | -47.04289 | 13403 ft | 365 kts | 270° |
| 2026-05-07 17:43 | -23.61973 | -47.07076 | 13953 ft | 370 kts | 270° |
| 2026-05-07 17:44 | -23.62060 | -47.09896 | 14473 ft | 373 kts | 270° |
| 2026-05-07 17:44 | -23.62149 | -47.12723 | 15058 ft | 374 kts | 270° |
| 2026-05-07 17:44 | -23.62235 | -47.15572 | 15586 ft | 377 kts | 270° |
| 2026-05-07 17:44 | -23.62319 | -47.18438 | 16149 ft | 380 kts | 271° |
| 2026-05-07 17:45 | -23.62318 | -47.21322 | 16723 ft | 380 kts | 277° |
| 2026-05-07 17:45 | -23.61871 | -47.24147 | 17326 ft | 378 kts | 288° |
| 2026-05-07 17:45 | -23.60972 | -47.26838 | 17885 ft | 378 kts | 295° |
| 2026-05-07 17:45 | -23.59940 | -47.29478 | 18439 ft | 379 kts | 295° |
| 2026-05-07 17:46 | -23.58903 | -47.32132 | 18938 ft | 381 kts | 294° |
| 2026-05-07 17:46 | -23.57873 | -47.34788 | 19531 ft | 379 kts | 294° |
| 2026-05-07 17:46 | -23.56846 | -47.37442 | 20012 ft | 382 kts | 294° |
| 2026-05-07 17:46 | -23.55815 | -47.40107 | 20562 ft | 381 kts | 293° |
| 2026-05-07 17:47 | -23.54783 | -47.42762 | 21141 ft | 380 kts | 293° |
| 2026-05-07 17:47 | -23.53748 | -47.45415 | 21618 ft | 381 kts | 292° |
| 2026-05-07 17:47 | -23.52712 | -47.48092 | 22015 ft | 385 kts | 290° |
| 2026-05-07 17:47 | -23.51886 | -47.50875 | 22439 ft | 387 kts | 287° |
| 2026-05-07 17:48 | -23.51095 | -47.53691 | 22895 ft | 390 kts | 286° |
| 2026-05-07 17:48 | -23.50306 | -47.56520 | 23331 ft | 391 kts | 286° |
| 2026-05-07 17:48 | -23.49514 | -47.59358 | 23743 ft | 393 kts | 286° |
| 2026-05-07 17:48 | -23.48713 | -47.62214 | 24115 ft | 395 kts | 286° |
| 2026-05-07 17:49 | -23.47906 | -47.65074 | 24465 ft | 397 kts | 286° |
| 2026-05-07 17:49 | -23.47091 | -47.67951 | 24821 ft | 398 kts | 286° |
| 2026-05-07 17:49 | -23.46275 | -47.70842 | 25165 ft | 400 kts | 286° |
| 2026-05-07 17:49 | -23.45459 | -47.73750 | 25484 ft | 403 kts | 285° |
| 2026-05-07 17:50 | -23.44642 | -47.76638 | 25803 ft | 406 kts | 287° |
| 2026-05-07 17:50 | -23.43594 | -47.79504 | 26127 ft | 409 kts | 290° |
| 2026-05-07 17:50 | -23.42526 | -47.82377 | 26462 ft | 410 kts | 286° |
| 2026-05-07 17:50 | -23.41998 | -47.85408 | 26773 ft | 409 kts | 271° |
| 2026-05-07 17:51 | -23.41979 | -47.88464 | 27086 ft | 411 kts | 269° |
| 2026-05-07 17:51 | -23.41984 | -47.91582 | 27422 ft | 413 kts | 269° |
| 2026-05-07 17:51 | -23.41993 | -47.94713 | 27756 ft | 415 kts | 269° |
| 2026-05-07 17:51 | -23.42000 | -47.97858 | 28097 ft | 417 kts | 269° |
| 2026-05-07 17:52 | -23.42003 | -47.99994 | 28320 ft | 418 kts | 269° |
| 2026-05-07 17:52 | -23.42004 | -48.03123 | 28652 ft | 420 kts | 269° |
| 2026-05-07 17:52 | -23.42003 | -48.06308 | 29002 ft | 421 kts | 269° |
| 2026-05-07 17:52 | -23.42003 | -48.09506 | 29328 ft | 423 kts | 269° |
| 2026-05-07 17:53 | -23.42001 | -48.12715 | 29646 ft | 425 kts | 269° |
| 2026-05-07 17:53 | -23.41999 | -48.15937 | 29896 ft | 426 kts | 269° |
| 2026-05-07 17:53 | -23.41996 | -48.19137 | 29949 ft | 415 kts | 269° |
| 2026-05-07 17:53 | -23.41990 | -48.22236 | 29952 ft | 409 kts | 269° |
| 2026-05-07 17:54 | -23.41982 | -48.28577 | 29949 ft | 428 kts | 269° |
| 2026-05-07 17:54 | -23.41970 | -48.35180 | 29948 ft | 443 kts | 269° |
| 2026-05-07 17:55 | -23.41951 | -48.41919 | 29945 ft | 446 kts | 269° |
| 2026-05-07 17:55 | -23.41940 | -48.48605 | 29948 ft | 446 kts | 269° |
| 2026-05-07 17:56 | -23.41930 | -48.55358 | 29948 ft | 446 kts | 269° |
| 2026-05-07 17:56 | -23.41912 | -48.62111 | 29947 ft | 446 kts | 269° |
| 2026-05-07 17:57 | -23.41884 | -48.68869 | 29704 ft | 447 kts | 269° |
| 2026-05-07 17:57 | -23.41868 | -48.72251 | 29419 ft | 447 kts | 269° |
| 2026-05-07 17:57 | -23.41852 | -48.75636 | 29146 ft | 447 kts | 269° |
| 2026-05-07 17:58 | -23.41839 | -48.79027 | 28895 ft | 448 kts | 269° |
| 2026-05-07 17:58 | -23.41825 | -48.82422 | 28635 ft | 449 kts | 269° |
| 2026-05-07 17:58 | -23.41810 | -48.85826 | 28377 ft | 450 kts | 269° |
| 2026-05-07 17:58 | -23.41794 | -48.89236 | 28121 ft | 451 kts | 269° |
| 2026-05-07 17:59 | -23.41777 | -48.92656 | 27866 ft | 452 kts | 270° |
| 2026-05-07 17:59 | -23.41754 | -48.96076 | 27615 ft | 453 kts | 270° |
| 2026-05-07 17:59 | -23.41730 | -48.99507 | 27359 ft | 453 kts | 270° |
| 2026-05-07 17:59 | -23.41709 | -49.02941 | 27119 ft | 454 kts | 270° |
| 2026-05-07 18:00 | -23.41691 | -49.06381 | 26867 ft | 455 kts | 270° |
| 2026-05-07 18:00 | -23.41671 | -49.09838 | 26625 ft | 458 kts | 270° |
| 2026-05-07 18:00 | -23.41650 | -49.13308 | 26384 ft | 459 kts | 270° |
| 2026-05-07 18:00 | -23.41626 | -49.16786 | 26146 ft | 460 kts | 270° |
| 2026-05-07 18:01 | -23.41603 | -49.20267 | 25908 ft | 461 kts | 270° |
| 2026-05-07 18:01 | -23.41579 | -49.23708 | 25677 ft | 461 kts | 270° |
| 2026-05-07 18:01 | -23.41552 | -49.27203 | 25443 ft | 462 kts | 270° |
| 2026-05-07 18:01 | -23.41522 | -49.30707 | 25216 ft | 463 kts | 270° |
| 2026-05-07 18:02 | -23.41462 | -49.37723 | 24760 ft | 464 kts | 270° |
| 2026-05-07 18:02 | -23.41433 | -49.41237 | 24536 ft | 465 kts | 270° |
| 2026-05-07 18:02 | -23.41404 | -49.44654 | 24315 ft | 466 kts | 270° |
| 2026-05-07 18:03 | -23.41374 | -49.48179 | 24095 ft | 466 kts | 271° |
| 2026-05-07 18:03 | -23.41344 | -49.51718 | 23873 ft | 467 kts | 271° |
| 2026-05-07 18:03 | -23.41315 | -49.55257 | 23655 ft | 468 kts | 271° |
| 2026-05-07 18:03 | -23.41284 | -49.58805 | 23424 ft | 469 kts | 270° |
| 2026-05-07 18:04 | -23.41252 | -49.62356 | 23159 ft | 470 kts | 271° |
| 2026-05-07 18:04 | -23.41219 | -49.65916 | 22901 ft | 471 kts | 271° |
| 2026-05-07 18:04 | -23.41183 | -49.69486 | 22643 ft | 473 kts | 271° |
| 2026-05-07 18:04 | -23.41145 | -49.73070 | 22388 ft | 474 kts | 271° |
| 2026-05-07 18:05 | -23.41108 | -49.76653 | 22139 ft | 473 kts | 271° |
| 2026-05-07 18:05 | -23.41072 | -49.80218 | 21880 ft | 465 kts | 271° |
| 2026-05-07 18:05 | -23.41035 | -49.83665 | 21622 ft | 447 kts | 271° |
| 2026-05-07 18:05 | -23.40994 | -49.86989 | 21374 ft | 432 kts | 272° |
| 2026-05-07 18:06 | -23.40954 | -49.90212 | 21129 ft | 422 kts | 272° |
| 2026-05-07 18:06 | -23.40914 | -49.93388 | 20830 ft | 419 kts | 272° |
| 2026-05-07 18:06 | -23.40875 | -49.96518 | 20298 ft | 419 kts | 272° |
| 2026-05-07 18:06 | -23.40836 | -49.99702 | 19786 ft | 422 kts | 272° |
| 2026-05-07 18:07 | -23.40796 | -50.02906 | 19256 ft | 425 kts | 272° |
| 2026-05-07 18:07 | -23.40756 | -50.06136 | 18737 ft | 428 kts | 273° |
| 2026-05-07 18:07 | -23.40714 | -50.09386 | 18211 ft | 431 kts | 273° |
| 2026-05-07 18:07 | -23.40672 | -50.12658 | 17638 ft | 434 kts | 273° |
| 2026-05-07 18:08 | -23.40628 | -50.15950 | 17119 ft | 436 kts | 273° |
| 2026-05-07 18:08 | -23.40584 | -50.19260 | 16592 ft | 438 kts | 273° |
| 2026-05-07 18:08 | -23.40539 | -50.22586 | 16071 ft | 440 kts | 273° |
| 2026-05-07 18:08 | -23.40495 | -50.25922 | 15548 ft | 442 kts | 274° |
| 2026-05-07 18:09 | -23.40449 | -50.29262 | 15020 ft | 442 kts | 274° |
| 2026-05-07 18:09 | -23.40398 | -50.32606 | 14497 ft | 441 kts | 274° |
| 2026-05-07 18:09 | -23.40349 | -50.35937 | 13973 ft | 439 kts | 274° |
| 2026-05-07 18:09 | -23.40309 | -50.39190 | 13701 ft | 416 kts | 274° |
| 2026-05-07 18:10 | -23.40273 | -50.42262 | 13004 ft | 398 kts | 274° |
| 2026-05-07 18:10 | -23.40231 | -50.45249 | 12415 ft | 394 kts | 274° |
| 2026-05-07 18:10 | -23.40181 | -50.48237 | 11963 ft | 396 kts | 274° |
| 2026-05-07 18:10 | -23.40131 | -50.51238 | 11470 ft | 396 kts | 274° |
| 2026-05-07 18:11 | -23.40083 | -50.54230 | 10971 ft | 394 kts | 274° |
| 2026-05-07 18:11 | -23.40050 | -50.56246 | 10654 ft | 394 kts | 274° |
| 2026-05-07 18:11 | -23.39989 | -50.60143 | 10089 ft | 375 kts | 274° |
| 2026-05-07 18:11 | -23.39952 | -50.62864 | 9903 ft | 345 kts | 273° |
| 2026-05-07 18:12 | -23.39918 | -50.65373 | 9786 ft | 318 kts | 274° |
| 2026-05-07 18:12 | -23.39885 | -50.67693 | 9559 ft | 298 kts | 274° |
| 2026-05-07 18:12 | -23.39850 | -50.69917 | 9013 ft | 291 kts | 275° |
| 2026-05-07 18:12 | -23.39811 | -50.72106 | 8391 ft | 288 kts | 275° |
| 2026-05-07 18:13 | -23.39769 | -50.74280 | 7781 ft | 285 kts | 275° |
| 2026-05-07 18:13 | -23.39728 | -50.76426 | 7149 ft | 282 kts | 275° |
| 2026-05-07 18:13 | -23.39689 | -50.78556 | 6588 ft | 279 kts | 275° |
| 2026-05-07 18:13 | -23.39655 | -50.80634 | 6141 ft | 270 kts | 275° |
| 2026-05-07 18:14 | -23.39620 | -50.82634 | 5744 ft | 259 kts | 275° |
| 2026-05-07 18:14 | -23.39587 | -50.84515 | 5645 ft | 239 kts | 276° |
| 2026-05-07 18:14 | -23.39555 | -50.86307 | 5559 ft | 237 kts | 275° |
| 2026-05-07 18:14 | -23.39523 | -50.88105 | 5469 ft | 237 kts | 275° |
| 2026-05-07 18:15 | -23.39493 | -50.89884 | 5365 ft | 234 kts | 275° |
| 2026-05-07 18:15 | -23.39462 | -50.91636 | 5273 ft | 226 kts | 276° |
| 2026-05-07 18:15 | -23.39432 | -50.93310 | 5175 ft | 217 kts | 276° |
| 2026-05-07 18:15 | -23.39356 | -50.94930 | 5015 ft | 213 kts | 286° |
| 2026-05-07 18:16 | -23.38917 | -50.96476 | 4681 ft | 215 kts | 295° |
| 2026-05-07 18:16 | -23.38399 | -50.97988 | 4407 ft | 212 kts | 295° |
| 2026-05-07 18:16 | -23.37898 | -50.99469 | 4135 ft | 205 kts | 295° |
| 2026-05-07 18:16 | -23.37415 | -51.00905 | 3859 ft | 200 kts | 295° |
| 2026-05-07 18:17 | -23.36942 | -51.02321 | 3616 ft | 197 kts | 295° |
| 2026-05-07 18:17 | -23.36494 | -51.03662 | 3386 ft | 185 kts | 296° |
| 2026-05-07 18:17 | -23.36066 | -51.04945 | 3154 ft | 176 kts | 297° |
| 2026-05-07 18:17 | -23.35666 | -51.06146 | 2961 ft | 159 kts | 297° |
| 2026-05-07 18:18 | -23.35305 | -51.07224 | 2750 ft | 146 kts | 293° |
| 2026-05-07 18:18 | -23.34955 | -51.08258 | 2577 ft | 146 kts | 294° |
| 2026-05-07 18:18 | -23.34615 | -51.09271 | 2372 ft | 140 kts | 295° |
| 2026-05-07 18:18 | -23.34280 | -51.10275 | 2216 ft | 143 kts | 297° |
| 2026-05-07 18:19 | -23.33945 | -51.11287 | 2030 ft | 140 kts | 299° |
| 2026-05-07 18:19 | -23.33603 | -51.12297 | 1856 ft | 137 kts | 297° |
| 2026-05-07 18:19 | -23.33318 | -51.13137 | 1874 ft | 74 kts | 289° |
| 2026-05-07 18:19 | -23.33223 | -51.13419 | 1883 ft | 32 kts | 289° |
| 2026-05-07 18:20 | -23.33153 | -51.13628 | 1886 ft | 27 kts | 290° |
| 2026-05-07 18:20 | -23.33100 | -51.13717 | 1882 ft | 8 kts | 352° |
| 2026-05-07 18:20 | -23.33046 | -51.13698 | 1883 ft | 8 kts | 14° |
| 2026-05-07 18:20 | -23.33018 | -51.13735 | 1882 ft | 0 kts | 289° |
| 2026-05-07 18:21 | -23.33010 | -51.13746 | 1887 ft | 4 kts | 313° |
| 2026-05-07 18:21 | -23.32989 | -51.13748 | 1891 ft | 3 kts | 20° |
| 2026-05-07 18:21 | -23.32962 | -51.13731 | 1888 ft | 5 kts | 19° |
| 2026-05-07 18:22 | -23.32949 | -51.13726 | 1890 ft | 0 kts | 19° |